createdAt,value
2023-03-19T00:01:05.583Z,11.48
2023-03-19T00:03:33.913Z,11.00
2023-03-19T00:06:03.883Z,9.35
2023-03-19T00:08:32.041Z,24.73
2023-03-19T00:11:06.365Z,21.58
2023-03-19T00:13:34.561Z,21.67
2023-03-19T00:16:02.820Z,16.15
2023-03-19T00:18:31.017Z,12.63
2023-03-19T00:20:59.229Z,13.57
2023-03-19T00:23:28.782Z,14.45
2023-03-19T00:25:57.070Z,9.80
2023-03-19T00:28:25.937Z,14.98
2023-03-19T00:30:54.640Z,8.75
2023-03-19T00:33:23.086Z,7.22
2023-03-19T00:35:51.768Z,14.75
2023-03-19T00:38:19.999Z,13.68
2023-03-19T00:40:49.559Z,18.88
2023-03-19T00:43:17.793Z,14.75
2023-03-19T00:45:46.108Z,15.60
2023-03-19T00:48:14.700Z,14.77
2023-03-19T00:50:43.206Z,24.08
2023-03-19T00:53:11.459Z,12.50
2023-03-19T00:55:39.659Z,18.40
2023-03-19T00:58:10.245Z,9.98
2023-03-19T01:00:39.248Z,17.08
2023-03-19T01:03:07.786Z,8.77
2023-03-19T01:08:04.782Z,11.32
2023-03-19T01:10:35.602Z,10.68
2023-03-19T01:13:05.792Z,14.48
2023-03-19T01:15:38.369Z,13.75
2023-03-19T01:18:07.624Z,12.32
2023-03-19T01:20:36.224Z,13.68
2023-03-19T01:23:05.371Z,10.52
2023-03-19T01:25:34.307Z,18.67
2023-03-19T01:28:04.653Z,21.90
2023-03-19T01:30:35.636Z,12.63
2023-03-19T01:33:08.272Z,12.07
2023-03-19T01:35:49.164Z,17.23
2023-03-19T01:38:19.662Z,24.98
2023-03-19T01:40:48.558Z,22.23
2023-03-19T01:43:19.113Z,21.45
2023-03-19T01:45:52.369Z,19.40
2023-03-19T01:48:44.302Z,19.35
2023-03-19T01:51:18.902Z,10.82
2023-03-19T01:53:54.762Z,18.83
2023-03-19T01:56:48.767Z,16.85
2023-03-19T01:59:43.662Z,10.00
2023-03-19T02:02:23.412Z,18.73
2023-03-19T02:04:58.025Z,18.23
2023-03-19T02:07:27.486Z,16.23
2023-03-19T02:09:56.500Z,16.15
2023-03-19T02:12:24.775Z,11.18
2023-03-19T02:14:53.396Z,12.02
2023-03-19T02:17:22.618Z,13.93
2023-03-19T02:19:56.842Z,15.02
2023-03-19T02:22:28.768Z,15.73
2023-03-19T02:25:03.126Z,17.45
2023-03-19T02:27:33.393Z,15.90
2023-03-19T02:30:03.081Z,17.17
2023-03-19T02:32:31.750Z,15.82
2023-03-19T02:34:59.936Z,19.50
2023-03-19T02:37:33.612Z,16.45
2023-03-19T02:40:07.841Z,17.92
2023-03-19T02:42:37.739Z,18.08
2023-03-19T02:45:07.268Z,17.05
2023-03-19T02:47:35.873Z,17.60
2023-03-19T02:50:04.145Z,15.95
2023-03-19T02:52:32.317Z,16.77
2023-03-19T02:55:00.737Z,15.63
2023-03-19T02:57:28.942Z,18.17
2023-03-19T02:59:58.476Z,21.05
2023-03-19T03:02:27.307Z,15.25
2023-03-19T03:04:55.574Z,26.48
2023-03-19T03:07:23.999Z,19.52
2023-03-19T03:09:52.601Z,14.98
2023-03-19T03:12:20.827Z,13.85
2023-03-19T03:14:49.374Z,16.23
2023-03-19T03:17:19.187Z,22.42
2023-03-19T03:19:47.722Z,20.65
2023-03-19T03:22:16.353Z,18.83
2023-03-19T03:24:44.737Z,17.75
2023-03-19T03:27:13.093Z,26.38
2023-03-19T03:29:41.498Z,20.92
2023-03-19T03:32:09.805Z,17.60
2023-03-19T03:34:39.490Z,13.10
2023-03-19T03:37:08.095Z,17.00
2023-03-19T03:39:37.652Z,20.20
2023-03-19T03:42:06.482Z,15.00
2023-03-19T03:44:36.627Z,16.50
2023-03-19T03:47:05.056Z,19.08
2023-03-19T03:49:33.478Z,14.00
2023-03-19T03:52:03.112Z,16.65
2023-03-19T03:54:32.128Z,17.63
2023-03-19T03:57:03.350Z,14.05
2023-03-19T03:59:32.165Z,13.65
2023-03-19T04:02:00.590Z,12.95
2023-03-19T04:04:29.589Z,14.70
2023-03-19T04:06:57.849Z,19.98
2023-03-19T04:09:42.667Z,15.00
2023-03-19T04:12:11.114Z,18.92
2023-03-19T04:14:39.280Z,16.45
2023-03-19T04:17:07.727Z,18.05
2023-03-19T04:19:36.238Z,13.77
2023-03-19T04:22:04.494Z,13.35
2023-03-19T04:24:34.141Z,17.10
2023-03-19T04:27:03.752Z,12.77
2023-03-19T04:29:32.693Z,15.85
2023-03-19T04:32:01.641Z,13.20
2023-03-19T04:34:30.086Z,13.23
2023-03-19T04:36:59.828Z,9.00
2023-03-19T04:39:28.804Z,12.32
2023-03-19T04:41:57.515Z,14.75
2023-03-19T04:44:35.731Z,13.82
2023-03-19T04:47:04.291Z,9.32
2023-03-19T04:49:42.397Z,11.45
2023-03-19T04:52:10.769Z,13.57
2023-03-19T04:54:38.970Z,15.07
2023-03-19T04:57:07.352Z,8.20
2023-03-19T04:59:40.590Z,13.10
2023-03-19T05:02:09.133Z,15.73
2023-03-19T05:04:40.047Z,12.95
2023-03-19T05:07:12.467Z,13.95
2023-03-19T05:09:43.140Z,12.63
2023-03-19T05:12:12.752Z,15.93
2023-03-19T05:14:50.237Z,15.95
2023-03-19T05:17:33.023Z,12.40
2023-03-19T05:20:12.771Z,13.93
2023-03-19T05:22:47.626Z,13.45
2023-03-19T05:25:17.746Z,10.65
2023-03-19T05:27:46.474Z,12.38
2023-03-19T05:30:22.332Z,13.95
2023-03-19T05:33:03.463Z,13.25
2023-03-19T05:35:38.668Z,13.15
2023-03-19T05:38:15.638Z,12.82
2023-03-19T05:40:47.106Z,11.32
2023-03-19T05:43:24.579Z,8.10
2023-03-19T05:45:55.020Z,10.02
2023-03-19T05:48:30.436Z,12.45
2023-03-19T05:50:59.338Z,15.52
2023-03-19T05:53:32.509Z,10.30
2023-03-19T05:56:26.962Z,16.65
2023-03-19T05:59:18.541Z,17.70
2023-03-19T06:01:56.306Z,13.65
2023-03-19T06:04:24.575Z,13.07
2023-03-19T06:06:53.256Z,11.30
2023-03-19T06:09:22.381Z,11.80
2023-03-19T06:11:55.753Z,13.52
2023-03-19T06:14:42.968Z,15.00
2023-03-19T06:17:45.620Z,13.60
2023-03-19T06:20:17.797Z,14.80
2023-03-19T06:22:46.799Z,13.38
2023-03-19T06:25:15.274Z,14.65
2023-03-19T06:27:43.528Z,17.98
2023-03-19T06:30:37.712Z,18.40
2023-03-19T06:33:16.434Z,22.10
2023-03-19T06:35:45.647Z,14.65
2023-03-19T06:38:13.870Z,17.67
2023-03-19T06:40:43.130Z,18.48
2023-03-19T06:43:11.915Z,17.88
2023-03-19T06:45:40.188Z,16.33
2023-03-19T06:48:08.554Z,19.98
2023-03-19T06:50:38.112Z,25.75
2023-03-19T06:53:06.317Z,24.92
2023-03-19T06:55:34.566Z,26.50
2023-03-19T06:58:02.749Z,26.45
2023-03-19T07:00:30.948Z,27.80
2023-03-19T07:02:59.168Z,27.92
2023-03-19T07:05:27.586Z,31.33
2023-03-19T07:07:57.148Z,25.38
2023-03-19T07:10:25.395Z,24.08
2023-03-19T07:12:53.630Z,23.08
2023-03-19T07:15:24.816Z,23.08
2023-03-19T07:17:52.981Z,30.27
2023-03-19T07:20:21.308Z,21.70
2023-03-19T07:22:51.788Z,16.05
2023-03-19T07:25:21.679Z,13.88
2023-03-19T07:27:49.880Z,14.82
2023-03-19T07:30:18.299Z,12.15
2023-03-19T07:32:46.992Z,14.68
2023-03-19T07:35:15.289Z,11.77
2023-03-19T07:37:43.531Z,9.95
2023-03-19T07:40:12.876Z,11.07
2023-03-19T07:42:45.043Z,9.77
2023-03-19T07:45:14.622Z,7.05
2023-03-19T07:47:42.787Z,7.43
2023-03-19T07:50:12.180Z,5.60
2023-03-19T07:52:40.590Z,6.32
2023-03-19T07:55:09.474Z,8.10
2023-03-19T07:57:37.653Z,7.90
2023-03-19T08:00:08.457Z,9.98
2023-03-19T08:02:42.722Z,8.77
2023-03-19T08:05:11.406Z,9.68
2023-03-19T08:07:39.630Z,11.52
2023-03-19T08:10:08.892Z,10.63
2023-03-19T08:12:40.982Z,9.77
2023-03-19T08:15:12.482Z,8.63
2023-03-19T08:17:40.742Z,9.43
2023-03-19T08:20:11.836Z,8.65
2023-03-19T08:22:40.569Z,9.02
2023-03-19T08:25:10.569Z,17.55
2023-03-19T08:27:38.802Z,15.55
2023-03-19T08:30:08.880Z,14.43
2023-03-19T08:32:38.837Z,22.77
2023-03-19T08:35:08.200Z,21.70
2023-03-19T08:37:36.379Z,16.00
2023-03-19T08:40:05.847Z,12.57
2023-03-19T08:42:34.347Z,16.17
2023-03-19T08:45:02.551Z,17.48
2023-03-19T08:47:32.054Z,15.82
2023-03-19T08:50:01.843Z,17.25
2023-03-19T08:52:30.024Z,17.10
2023-03-19T08:54:58.196Z,15.82
2023-03-19T08:57:26.454Z,12.48
2023-03-19T08:59:57.540Z,11.27
2023-03-19T09:02:25.754Z,12.68
2023-03-19T09:04:54.175Z,10.82
2023-03-19T09:07:23.864Z,13.05
2023-03-19T09:09:52.059Z,13.80
2023-03-19T09:12:20.263Z,12.45
2023-03-19T09:14:48.481Z,11.27
2023-03-19T09:17:18.206Z,10.23
2023-03-19T09:19:46.436Z,13.45
2023-03-19T09:22:14.918Z,11.23
2023-03-19T09:24:44.633Z,11.27
2023-03-19T09:27:12.978Z,13.77
2023-03-19T09:29:41.522Z,14.57
2023-03-19T09:32:09.956Z,9.05
2023-03-19T09:34:40.791Z,8.80
2023-03-19T09:37:11.573Z,9.68
2023-03-19T09:39:40.008Z,11.55
2023-03-19T09:42:20.402Z,10.07
2023-03-19T09:44:49.317Z,7.32
2023-03-19T09:47:29.638Z,10.77
2023-03-19T09:50:01.308Z,10.38
2023-03-19T09:52:37.548Z,12.27
2023-03-19T09:55:17.829Z,7.90
2023-03-19T09:57:48.606Z,7.40
2023-03-19T10:00:23.593Z,8.45
2023-03-19T10:02:57.958Z,8.60
2023-03-19T10:05:33.723Z,7.97
2023-03-19T10:08:33.816Z,7.00
2023-03-19T10:11:27.792Z,7.05
2023-03-19T10:14:14.653Z,5.97
2023-03-19T10:16:45.596Z,5.90
2023-03-19T10:19:18.039Z,5.68
2023-03-19T10:21:50.042Z,5.93
2023-03-19T10:24:24.148Z,6.90
2023-03-19T10:27:00.126Z,4.35
2023-03-19T10:29:29.963Z,6.72
2023-03-19T10:32:07.858Z,5.15
2023-03-19T10:34:38.022Z,6.20
2023-03-19T10:37:15.267Z,5.93
2023-03-19T10:39:45.421Z,7.13
2023-03-19T10:42:33.075Z,8.75
2023-03-19T10:45:06.979Z,5.38
2023-03-19T10:47:39.922Z,6.45
2023-03-19T10:50:12.172Z,7.32
2023-03-19T10:52:40.638Z,7.18
2023-03-19T10:55:15.716Z,8.25
2023-03-19T10:57:45.338Z,5.82
2023-03-19T11:00:21.604Z,7.28
2023-03-19T11:02:53.206Z,6.40
2023-03-19T11:05:28.002Z,7.05
2023-03-19T11:07:59.651Z,10.02
2023-03-19T11:10:30.153Z,7.90
2023-03-19T11:13:00.678Z,5.68
2023-03-19T11:15:38.621Z,6.95
2023-03-19T11:18:18.060Z,8.20
2023-03-19T11:20:50.723Z,8.60
2023-03-19T11:23:20.402Z,7.50
2023-03-19T11:25:52.377Z,7.30
2023-03-19T11:28:25.649Z,5.10
2023-03-19T11:31:03.607Z,6.32
2023-03-19T11:33:44.645Z,7.03
2023-03-19T11:36:16.606Z,8.15
2023-03-19T11:39:03.209Z,6.25
2023-03-19T11:41:41.167Z,9.43
2023-03-19T11:44:17.656Z,6.38
2023-03-19T11:46:55.509Z,5.43
2023-03-19T11:49:37.154Z,8.85
2023-03-19T11:52:14.340Z,7.95
2023-03-19T11:54:52.310Z,6.57
2023-03-19T11:57:29.461Z,6.40
2023-03-19T12:00:08.141Z,6.15
2023-03-19T12:03:18.845Z,6.85
2023-03-19T12:05:54.930Z,6.05
2023-03-19T12:08:32.862Z,8.77
2023-03-19T12:11:11.210Z,7.32
2023-03-19T12:13:55.883Z,7.03
2023-03-19T12:16:30.819Z,7.22
2023-03-19T12:19:18.764Z,6.10
2023-03-19T12:21:57.213Z,5.85
2023-03-19T12:24:37.825Z,5.55
2023-03-19T12:27:19.406Z,5.38
2023-03-19T12:29:55.727Z,6.05
2023-03-19T12:32:43.639Z,5.78
2023-03-19T12:35:16.401Z,5.70
2023-03-19T12:37:55.612Z,7.75
2023-03-19T12:40:29.182Z,6.38
2023-03-19T12:43:00.101Z,5.75
2023-03-19T12:45:34.269Z,7.68
2023-03-19T12:48:08.423Z,5.95
2023-03-19T12:50:43.107Z,6.38
2023-03-19T12:53:19.075Z,5.30
2023-03-19T12:55:51.401Z,5.88
2023-03-19T12:58:25.564Z,4.90
2023-03-19T13:00:59.230Z,4.10
2023-03-19T13:03:37.225Z,5.32
2023-03-19T13:06:11.272Z,6.78
2023-03-19T13:08:45.726Z,4.95
2023-03-19T13:11:17.233Z,4.97
2023-03-19T13:13:52.655Z,5.35
2023-03-19T13:16:34.321Z,6.22
2023-03-19T13:19:13.991Z,5.72
2023-03-19T13:21:44.569Z,6.63
2023-03-19T13:24:21.097Z,4.03
2023-03-19T13:26:50.972Z,5.82
2023-03-19T13:29:22.271Z,6.20
2023-03-19T13:31:51.968Z,6.03
2023-03-19T13:34:25.442Z,4.28
2023-03-19T13:37:01.882Z,6.32
2023-03-19T13:39:33.133Z,5.72
2023-03-19T13:42:24.182Z,4.55
2023-03-19T13:44:55.173Z,5.57
2023-03-19T13:47:40.316Z,5.72
2023-03-19T13:50:52.000Z,5.13
2023-03-19T13:53:42.390Z,4.90
2023-03-19T13:56:28.492Z,5.32
2023-03-19T13:59:25.130Z,4.60
2023-03-19T14:01:53.365Z,5.72
2023-03-19T14:04:29.438Z,5.07
2023-03-19T14:06:59.440Z,4.63
2023-03-19T14:09:42.150Z,4.07
2023-03-19T14:12:24.569Z,6.50
2023-03-19T14:14:55.918Z,5.45
2023-03-19T14:17:29.094Z,13.15
2023-03-19T14:20:06.552Z,4.82
2023-03-19T14:22:39.238Z,4.70
2023-03-19T14:25:18.737Z,5.30
2023-03-19T14:27:49.220Z,5.70
2023-03-19T14:30:28.374Z,7.18
2023-03-19T14:32:59.393Z,6.63
2023-03-19T14:35:28.762Z,6.00
2023-03-19T14:38:01.719Z,6.10
2023-03-19T14:40:38.924Z,4.47
2023-03-19T14:43:16.476Z,4.72
2023-03-19T14:45:52.830Z,4.03
2023-03-19T14:48:52.963Z,5.95
2023-03-19T14:51:31.854Z,4.45
2023-03-19T14:54:06.251Z,6.28
2023-03-19T14:56:36.968Z,5.32
2023-03-19T14:59:06.462Z,5.18
2023-03-19T15:01:40.322Z,6.30
2023-03-19T15:04:11.740Z,5.88
2023-03-19T15:06:42.134Z,8.95
2023-03-19T15:09:18.115Z,6.57
2023-03-19T15:12:11.778Z,5.80
2023-03-19T15:14:57.373Z,4.50
2023-03-19T15:17:29.030Z,6.57
2023-03-19T15:20:00.678Z,6.15
2023-03-19T15:22:32.289Z,8.80
2023-03-19T15:25:08.090Z,5.05
2023-03-19T15:27:37.890Z,5.93
2023-03-19T15:30:21.383Z,5.35
2023-03-19T15:33:04.637Z,4.45
2023-03-19T15:35:37.901Z,4.85
2023-03-19T15:38:10.055Z,6.03
2023-03-19T15:40:39.974Z,4.88
2023-03-19T15:43:12.419Z,5.85
2023-03-19T15:45:43.628Z,12.18
2023-03-19T15:48:19.966Z,9.52
2023-03-19T15:50:49.875Z,8.90
2023-03-19T15:53:22.205Z,12.40
2023-03-19T15:55:53.165Z,9.75
2023-03-19T15:58:24.727Z,9.73
2023-03-19T16:00:54.687Z,9.30
2023-03-19T16:03:29.791Z,10.23
2023-03-19T16:06:03.718Z,15.23
2023-03-19T16:08:32.114Z,21.83
2023-03-19T16:11:28.884Z,18.17
2023-03-19T16:14:00.399Z,9.07
2023-03-19T16:16:30.902Z,13.70
2023-03-19T16:19:00.008Z,21.40
2023-03-19T16:21:33.838Z,11.30
2023-03-19T16:24:04.862Z,27.45
2023-03-19T16:26:39.600Z,21.55
2023-03-19T16:29:20.814Z,27.50
2023-03-19T16:31:52.792Z,23.70
2023-03-19T16:34:32.094Z,25.67
2023-03-19T16:37:01.456Z,30.38
2023-03-19T16:39:37.432Z,24.73
2023-03-19T16:42:28.953Z,22.27
2023-03-19T16:44:58.927Z,29.50
2023-03-19T16:47:27.200Z,35.45
2023-03-19T16:49:55.469Z,28.73
2023-03-19T16:52:25.791Z,34.17
2023-03-19T16:54:55.618Z,30.70
2023-03-19T16:57:23.850Z,34.53
2023-03-19T16:59:52.098Z,33.00
2023-03-19T17:02:21.605Z,43.33
2023-03-19T17:04:49.783Z,66.70
2023-03-19T17:07:18.016Z,73.47
2023-03-19T17:09:46.183Z,29.70
2023-03-19T17:12:17.445Z,30.98
2023-03-19T17:14:45.638Z,28.65
2023-03-19T17:17:20.065Z,21.92
2023-03-19T17:19:51.403Z,20.95
2023-03-19T17:22:19.656Z,29.58
2023-03-19T17:24:47.982Z,20.92
2023-03-19T17:27:18.460Z,29.48
2023-03-19T17:29:46.692Z,37.75
2023-03-19T17:32:19.533Z,33.58
2023-03-19T17:34:49.365Z,20.05
2023-03-19T17:37:17.587Z,82.05
2023-03-19T17:39:46.081Z,24.58
2023-03-19T17:42:22.936Z,17.27
2023-03-19T17:44:52.062Z,22.05
2023-03-19T17:47:20.652Z,28.08
2023-03-19T17:49:50.358Z,21.55
2023-03-19T17:52:19.837Z,58.47
2023-03-19T17:54:48.026Z,22.10
2023-03-19T17:57:17.778Z,31.65
2023-03-19T17:59:46.047Z,18.85
2023-03-19T18:02:33.190Z,17.08
2023-03-19T18:05:02.822Z,14.68
2023-03-19T18:07:32.438Z,18.90
2023-03-19T18:10:00.817Z,17.63
2023-03-19T18:12:28.942Z,15.20
2023-03-19T18:14:58.374Z,23.60
2023-03-19T18:17:26.754Z,14.75
2023-03-19T18:19:56.000Z,13.40
2023-03-19T18:22:27.292Z,11.25
2023-03-19T18:24:55.775Z,11.43
2023-03-19T18:27:24.926Z,9.40
2023-03-19T18:29:53.421Z,9.98
2023-03-19T18:32:27.172Z,11.60
2023-03-19T18:34:57.526Z,9.25
2023-03-19T18:37:27.064Z,8.00
2023-03-19T18:39:57.727Z,9.55
2023-03-19T18:42:25.895Z,10.57
2023-03-19T18:44:56.266Z,11.38
2023-03-19T18:47:24.453Z,9.35
2023-03-19T18:49:57.475Z,8.77
2023-03-19T18:52:27.043Z,7.75
2023-03-19T18:54:57.881Z,10.52
2023-03-19T18:57:26.078Z,7.80
2023-03-19T18:59:54.278Z,7.32
2023-03-19T19:02:33.822Z,7.45
2023-03-19T19:05:02.518Z,9.55
2023-03-19T19:07:32.017Z,6.07
2023-03-19T19:10:00.205Z,9.10
2023-03-19T19:12:28.558Z,5.72
2023-03-19T19:15:00.383Z,8.65
2023-03-19T19:17:29.615Z,10.70
2023-03-19T19:19:57.793Z,10.70
2023-03-19T19:22:26.030Z,7.93
2023-03-19T19:24:55.780Z,9.70
2023-03-19T19:27:26.072Z,8.73
2023-03-19T19:29:54.443Z,9.70
2023-03-19T19:32:25.660Z,10.75
2023-03-19T19:34:54.596Z,11.32
2023-03-19T19:37:24.296Z,15.85
2023-03-19T19:39:52.787Z,16.42
2023-03-19T19:42:23.992Z,14.50
2023-03-19T19:44:54.283Z,15.38
2023-03-19T19:47:22.475Z,14.18
2023-03-19T19:49:50.706Z,10.25
2023-03-19T19:52:20.372Z,12.70
2023-03-19T19:54:48.707Z,10.52
2023-03-19T19:57:24.672Z,12.13
2023-03-19T19:59:54.246Z,9.95
2023-03-19T20:02:28.397Z,9.95
2023-03-19T20:04:57.779Z,10.35
2023-03-19T20:07:27.112Z,10.00
2023-03-19T20:09:57.437Z,14.43
2023-03-19T20:12:32.759Z,12.82
2023-03-19T20:15:01.363Z,11.55
2023-03-19T20:17:29.569Z,9.25
2023-03-19T20:20:01.189Z,12.27
2023-03-19T20:22:29.660Z,11.35
2023-03-19T20:24:57.981Z,14.57
2023-03-19T20:27:33.001Z,13.65
2023-03-19T20:30:01.348Z,16.50
2023-03-19T20:32:34.288Z,13.90
2023-03-19T20:35:03.024Z,17.13
2023-03-19T20:37:31.707Z,15.07
2023-03-19T20:40:00.097Z,13.15
2023-03-19T20:42:31.059Z,13.35
2023-03-19T20:45:01.331Z,15.57
2023-03-19T20:47:32.822Z,14.63
2023-03-19T20:50:01.123Z,19.58
2023-03-19T20:52:29.822Z,11.95
2023-03-19T20:54:58.211Z,15.02
2023-03-19T20:57:30.584Z,13.85
2023-03-19T21:00:03.139Z,15.80
2023-03-19T21:02:31.433Z,10.13
2023-03-19T21:04:59.624Z,12.35
2023-03-19T21:07:30.758Z,12.45
2023-03-19T21:09:59.290Z,18.25
2023-03-19T21:12:31.653Z,16.50
2023-03-19T21:15:01.376Z,16.58
2023-03-19T21:17:30.105Z,16.45
2023-03-19T21:19:58.318Z,16.25
2023-03-19T21:22:28.415Z,17.05
2023-03-19T21:25:04.738Z,14.07
2023-03-19T21:27:37.401Z,14.40
2023-03-19T21:30:06.815Z,24.17
2023-03-19T21:32:37.964Z,22.55
2023-03-19T21:35:07.101Z,25.80
2023-03-19T21:37:40.408Z,27.75
2023-03-19T21:40:15.143Z,30.65
2023-03-19T21:42:46.272Z,25.17
2023-03-19T21:45:27.366Z,27.40
2023-03-19T21:47:59.822Z,24.10
2023-03-19T21:50:28.106Z,20.58
2023-03-19T21:53:00.723Z,20.02
2023-03-19T21:55:29.840Z,20.42
2023-03-19T21:57:59.502Z,21.02
2023-03-19T22:00:27.865Z,36.78
2023-03-19T22:02:56.267Z,20.88
2023-03-19T22:05:27.522Z,15.13
2023-03-19T22:07:56.226Z,18.45
2023-03-19T22:10:28.164Z,17.65
2023-03-19T22:12:56.497Z,20.20
2023-03-19T22:15:35.797Z,25.63
2023-03-19T22:18:05.681Z,17.65
2023-03-19T22:20:33.977Z,16.33
2023-03-19T22:23:02.509Z,12.10
2023-03-19T22:25:35.267Z,15.13
2023-03-19T22:28:09.160Z,16.35
2023-03-19T22:30:39.874Z,13.82
2023-03-19T22:33:15.298Z,13.68
2023-03-19T22:35:44.084Z,16.77
2023-03-19T22:38:14.625Z,16.58
2023-03-19T22:40:46.520Z,15.57
2023-03-19T22:43:20.140Z,15.57
2023-03-19T22:45:55.473Z,18.42
2023-03-19T22:48:24.396Z,15.30
2023-03-19T22:50:52.821Z,15.32
2023-03-19T22:53:23.418Z,18.95
2023-03-19T22:55:51.689Z,14.15
2023-03-19T22:58:19.874Z,18.10
2023-03-19T23:00:49.609Z,65.35
2023-03-19T23:03:21.408Z,20.08
2023-03-19T23:05:53.726Z,16.15
2023-03-19T23:08:22.817Z,11.38
2023-03-19T23:10:53.246Z,10.77
2023-03-19T23:13:24.334Z,8.73
2023-03-19T23:15:58.250Z,8.95
2023-03-19T23:18:30.525Z,11.82
2023-03-19T23:20:59.108Z,12.77
2023-03-19T23:23:28.258Z,14.45
2023-03-19T23:25:57.545Z,20.88
2023-03-19T23:28:31.406Z,18.55
2023-03-19T23:31:03.878Z,12.98
2023-03-19T23:33:32.179Z,13.40
2023-03-19T23:36:00.572Z,16.77
2023-03-19T23:38:28.853Z,13.32
2023-03-19T23:40:57.133Z,16.50
2023-03-19T23:43:28.588Z,13.65
2023-03-19T23:45:58.287Z,14.90
2023-03-19T23:48:32.070Z,11.32
2023-03-19T23:51:00.577Z,11.30
2023-03-19T23:53:30.629Z,10.98
2023-03-19T23:56:00.730Z,9.18
2023-03-19T23:58:39.725Z,9.32
